Time;durP1;ratioP1;P1;durP2;ratioP2;P2;SDS_P1;SDS_P2;PMS_P1;PMS_P2;Temp;Humidity;BMP_temperature;BMP_pressure;BME280_temperature;BME280_humidity;BME280_pressure;Samples;Min_cycle;Max_cycle;Signal;HPM_P1;HPM_P2
2022/10/31 00:01:31;;;;;;;24.87;11.57;;;14.30;99.90;;;;;;5079039;28;20194;-71
2022/10/31 00:03:59;;;;;;;24.53;12.77;;;14.20;99.90;;;;;;5095319;28;20611;-71
2022/10/31 00:06:26;;;;;;;21.13;11.10;;;14.20;99.90;;;;;;5085102;28;20256;-71
2022/10/31 00:08:55;;;;;;;14.73;9.07;;;14.20;99.90;;;;;;5096807;28;20210;-71
2022/10/31 00:11:23;;;;;;;18.20;9.40;;;14.20;99.90;;;;;;5096592;28;20221;-71
2022/10/31 00:13:50;;;;;;;18.00;10.43;;;14.20;99.90;;;;;;5070175;28;20225;-71
2022/10/31 00:16:19;;;;;;;19.23;10.40;;;14.30;99.90;;;;;;5079666;28;20288;-70
2022/10/31 00:18:55;;;;;;;14.47;8.93;;;14.30;99.90;;;;;;5094208;28;20941;-70
2022/10/31 00:21:23;;;;;;;15.50;9.10;;;14.30;99.90;;;;;;5082961;28;20193;-70
2022/10/31 00:23:50;;;;;;;13.70;9.07;;;14.40;99.90;;;;;;5098108;28;20890;-70
2022/10/31 00:26:17;;;;;;;13.52;9.07;;;14.40;99.90;;;;;;5076616;28;20268;-70
2022/10/31 00:28:45;;;;;;;20.60;9.38;;;14.40;99.90;;;;;;5076853;28;20209;-70
2022/10/31 00:31:13;;;;;;;20.77;9.07;;;14.50;99.90;;;;;;5076766;28;20255;-70
2022/10/31 00:33:41;;;;;;;16.83;9.38;;;14.50;99.90;;;;;;5066206;28;20264;-70
2022/10/31 00:36:14;;;;;;;18.75;8.80;;;14.50;99.90;;;;;;5076268;28;20206;-70
2022/10/31 00:38:42;;;;;;;14.60;8.70;;;14.50;99.90;;;;;;5073947;28;20223;-70
2022/10/31 00:41:10;;;;;;;19.20;8.77;;;14.50;99.90;;;;;;5092345;28;20855;-70
2022/10/31 00:43:40;;;;;;;20.13;9.00;;;14.50;99.90;;;;;;5083706;28;20199;-70
2022/10/31 00:46:08;;;;;;;16.47;9.07;;;14.50;99.90;;;;;;5075737;28;20673;-70
2022/10/31 00:48:35;;;;;;;15.65;9.25;;;14.40;99.90;;;;;;5075170;28;20241;-70
2022/10/31 00:51:02;;;;;;;13.77;8.73;;;14.40;99.90;;;;;;5075727;28;20248;-70
2022/10/31 00:53:29;;;;;;;14.90;8.70;;;14.40;99.90;;;;;;5066350;28;20191;-70
2022/10/31 00:55:56;;;;;;;20.63;9.82;;;14.30;99.90;;;;;;5062144;28;20198;-69
2022/10/31 00:58:23;;;;;;;18.20;10.03;;;14.40;99.90;;;;;;5079282;28;20195;-70
2022/10/31 01:00:56;;;;;;;13.93;9.07;;;14.40;99.90;;;;;;5063594;28;20201;-70
2022/10/31 01:03:29;;;;;;;15.40;10.45;;;14.50;99.90;;;;;;5082426;28;20202;-71
2022/10/31 01:06:04;;;;;;;20.23;10.90;;;14.60;99.90;;;;;;5068736;28;21139;-70
2022/10/31 01:08:32;;;;;;;18.90;9.43;;;14.60;99.90;;;;;;5080036;28;20186;-70
2022/10/31 01:11:03;;;;;;;17.75;9.05;;;14.60;99.90;;;;;;5079619;28;20214;-70
2022/10/31 01:13:33;;;;;;;18.95;9.30;;;14.50;99.90;;;;;;5078673;28;20179;-70
2022/10/31 01:16:03;;;;;;;14.47;9.07;;;14.50;99.90;;;;;;5079994;28;20218;-70
2022/10/31 01:18:32;;;;;;;19.85;9.65;;;14.50;99.90;;;;;;5077882;28;20209;-70
2022/10/31 01:21:22;;;;;;;15.47;9.60;;;14.40;99.90;;;;;;5061655;28;20260;-70
2022/10/31 01:23:50;;;;;;;19.08;10.07;;;14.30;99.90;;;;;;5075826;28;20282;-70
2022/10/31 01:26:22;;;;;;;17.73;9.80;;;14.10;99.90;;;;;;5060194;28;20234;-70
2022/10/31 01:29:00;;;;;;;15.33;9.73;;;14.00;99.90;;;;;;5065937;28;20195;-70
2022/10/31 01:31:31;;;;;;;16.77;9.47;;;13.90;99.90;;;;;;5063943;28;20247;-70
2022/10/31 01:33:58;;;;;;;14.83;9.43;;;13.90;99.90;;;;;;5051252;28;20194;-71
2022/10/31 01:36:32;;;;;;;15.73;9.07;;;13.90;99.90;;;;;;5079216;28;20715;-71
2022/10/31 01:39:03;;;;;;;16.17;9.93;;;13.80;99.90;;;;;;5079543;28;20736;-71
2022/10/31 01:41:34;;;;;;;14.23;9.87;;;13.90;99.90;;;;;;5062927;28;20201;-69
2022/10/31 01:44:23;;;;;;;18.43;10.13;;;13.90;99.90;;;;;;5061623;28;20199;-69
2022/10/31 01:46:56;;;;;;;20.70;10.53;;;13.80;1.00;;;;;;5027008;28;20641;-69
2022/10/31 01:49:38;;;;;;;15.63;10.20;;;13.80;1.00;;;;;;5076798;28;20609;-70
2022/10/31 01:52:14;;;;;;;17.00;9.70;;;13.90;1.00;;;;;;5044078;28;20556;-68
2022/10/31 01:54:50;;;;;;;18.23;9.20;;;14.00;1.00;;;;;;5060537;28;20260;-69
2022/10/31 01:57:18;;;;;;;17.83;11.10;;;14.00;99.90;;;;;;5061542;28;20208;-69
2022/10/31 01:59:51;;;;;;;14.13;9.80;;;14.00;99.90;;;;;;5080056;28;20238;-68
2022/10/31 02:02:19;;;;;;;14.37;9.83;;;13.90;99.90;;;;;;5061559;28;20669;-69
2022/10/31 02:04:47;;;;;;;15.00;9.53;;;13.80;1.00;;;;;;5079565;28;20238;-69
2022/10/31 02:07:25;;;;;;;18.13;8.97;;;13.80;1.00;;;;;;5060379;28;20697;-69
2022/10/31 02:09:53;;;;;;;19.13;10.07;;;13.80;1.00;;;;;;5062956;28;20214;-69
2022/10/31 02:12:21;;;;;;;15.33;9.40;;;13.80;1.00;;;;;;5060976;28;20294;-69
2022/10/31 02:14:48;;;;;;;21.30;11.53;;;13.80;1.00;;;;;;5077365;28;20656;-70
2022/10/31 02:17:15;;;;;;;18.07;9.67;;;13.90;1.00;;;;;;5079726;28;20620;-70
2022/10/31 02:20:00;;;;;;;20.83;9.70;;;13.90;1.00;;;;;;5058516;28;20190;-70
2022/10/31 02:22:39;;;;;;;17.17;9.07;;;13.90;1.00;;;;;;5059901;28;20301;-70
2022/10/31 02:25:28;;;;;;;18.53;9.47;;;14.00;1.00;;;;;;5066329;28;20206;-70
2022/10/31 02:28:24;;;;;;;21.10;9.53;;;14.00;99.90;;;;;;5085716;28;21475;-70
2022/10/31 02:30:57;;;;;;;15.63;9.20;;;14.00;99.90;;;;;;5050779;28;20227;-71
2022/10/31 02:33:43;;;;;;;16.13;9.03;;;14.00;99.90;;;;;;5060985;28;20193;-71
2022/10/31 02:36:15;;;;;;;16.73;8.40;;;14.00;1.00;;;;;;5081204;28;20434;-71
2022/10/31 02:38:51;;;;;;;13.87;9.00;;;14.00;1.00;;;;;;5079096;28;20436;-70
2022/10/31 02:41:40;;;;;;;18.17;13.87;;;14.00;1.00;;;;;;5070811;28;20576;-71
2022/10/31 02:44:26;;;;;;;18.77;10.63;;;14.00;1.00;;;;;;5083079;28;20193;-70
2022/10/31 02:46:59;;;;;;;17.47;10.83;;;13.90;1.00;;;;;;5095996;28;20197;-71
2022/10/31 02:49:43;;;;;;;22.00;11.20;;;13.80;1.00;;;;;;5084124;28;20885;-71
2022/10/31 02:52:17;;;;;;;20.10;13.07;;;13.70;1.00;;;;;;5078297;28;20233;-70
2022/10/31 02:54:45;;;;;;;22.07;13.97;;;13.60;1.00;;;;;;5096703;28;20236;-70
2022/10/31 02:57:15;;;;;;;23.27;12.07;;;13.50;1.00;;;;;;5080089;28;20201;-71
2022/10/31 02:59:49;;;;;;;27.53;18.63;;;13.50;1.00;;;;;;5079537;28;20293;-69
2022/10/31 03:02:37;;;;;;;18.57;11.73;;;13.50;69.00;;;;;;5078232;28;20206;-71
2022/10/31 03:05:20;;;;;;;22.07;12.10;;;13.40;98.80;;;;;;5067183;28;20198;-69
2022/10/31 03:08:18;;;;;;;22.60;15.83;;;13.40;99.90;;;;;;5068956;28;20210;-69
2022/10/31 03:10:57;;;;;;;37.77;19.77;;;13.30;99.90;;;;;;5076349;28;20217;-69
2022/10/31 03:13:24;;;;;;;36.27;21.27;;;13.30;99.90;;;;;;5084211;28;20197;-71
2022/10/31 03:16:25;;;;;;;43.83;25.90;;;13.30;99.90;;;;;;5085700;28;20732;-71
2022/10/31 03:19:00;;;;;;;41.73;22.40;;;13.30;99.90;;;;;;5061529;28;20197;-69
2022/10/31 03:21:39;;;;;;;23.87;13.20;;;13.40;99.90;;;;;;5092470;28;20228;-69
2022/10/31 03:24:09;;;;;;;26.43;16.27;;;13.30;99.90;;;;;;5097538;28;20204;-69
2022/10/31 03:26:41;;;;;;;19.80;11.77;;;13.20;99.90;;;;;;5085808;28;20739;-68
2022/10/31 03:29:13;;;;;;;18.37;10.00;;;13.20;99.90;;;;;;5086290;28;20276;-69
2022/10/31 03:31:47;;;;;;;20.50;12.67;;;13.10;59.30;;;;;;5079867;28;20225;-72
2022/10/31 03:34:17;;;;;;;18.47;10.93;;;13.00;3.70;;;;;;5079771;28;20194;-72
2022/10/31 03:36:46;;;;;;;19.63;9.83;;;13.00;31.90;;;;;;5069411;28;20218;-70
2022/10/31 03:39:16;;;;;;;15.50;10.60;;;13.00;13.80;;;;;;5096667;28;20225;-69
2022/10/31 03:41:47;;;;;;;14.23;9.17;;;13.20;17.20;;;;;;5083792;28;20209;-69
2022/10/31 03:44:18;;;;;;;14.40;8.73;;;13.30;1.00;;;;;;5061338;28;20217;-69
2022/10/31 03:46:53;;;;;;;12.97;9.40;;;13.50;1.00;;;;;;5070722;28;20282;-68
2022/10/31 03:49:21;;;;;;;13.80;8.63;;;13.60;1.00;;;;;;5070163;28;20209;-69
2022/10/31 03:52:20;;;;;;;19.33;11.57;;;13.60;1.00;;;;;;5087337;28;20672;-71
2022/10/31 03:55:04;;;;;;;15.60;10.17;;;13.50;1.00;;;;;;5096209;28;20189;-68
2022/10/31 03:57:44;;;;;;;18.37;10.97;;;13.50;1.00;;;;;;5062475;28;20246;-69
2022/10/31 04:00:15;;;;;;;18.43;10.13;;;13.50;1.00;;;;;;5080036;28;20198;-69
2022/10/31 04:03:27;;;;;;;17.37;11.10;;;13.50;1.00;;;;;;5098661;28;20200;-69
2022/10/31 04:06:00;;;;;;;20.00;15.07;;;13.50;1.00;;;;;;5063710;28;20255;-70
2022/10/31 04:08:31;;;;;;;15.30;10.47;;;13.60;1.00;;;;;;5072117;28;20221;-71
2022/10/31 04:11:00;;;;;;;16.73;12.17;;;13.50;1.00;;;;;;5078338;28;20209;-71
2022/10/31 04:13:31;;;;;;;17.63;11.00;;;13.40;1.00;;;;;;5068868;28;20338;-70
2022/10/31 04:16:03;;;;;;;14.80;9.67;;;13.20;1.00;;;;;;5081224;28;20190;-70
2022/10/31 04:18:32;;;;;;;14.23;10.23;;;13.10;31.70;;;;;;5086494;28;20284;-70
2022/10/31 04:21:04;;;;;;;19.57;9.40;;;13.00;99.90;;;;;;5090320;28;20264;-70
2022/10/31 04:23:32;;;;;;;16.07;10.70;;;12.90;99.90;;;;;;5084197;28;20269;-70
2022/10/31 04:26:01;;;;;;;15.03;9.80;;;12.80;99.90;;;;;;5084107;28;20235;-70
2022/10/31 04:28:29;;;;;;;17.20;10.37;;;12.70;99.90;;;;;;5089025;28;20193;-69
2022/10/31 04:30:56;;;;;;;17.83;9.77;;;12.60;1.00;;;;;;5103207;28;20206;-69
2022/10/31 04:33:23;;;;;;;14.10;9.37;;;12.40;1.00;;;;;;5088525;28;20755;-70
2022/10/31 04:35:50;;;;;;;15.80;9.80;;;12.40;1.00;;;;;;5100659;28;20208;-70
2022/10/31 04:38:17;;;;;;;15.87;9.93;;;12.30;1.00;;;;;;5072493;28;20193;-70
2022/10/31 04:40:45;;;;;;;22.47;10.00;;;12.30;1.00;;;;;;5073360;28;20201;-71
2022/10/31 04:43:38;;;;;;;17.93;11.37;;;12.20;1.00;;;;;;5097455;28;20348;-70
2022/10/31 04:46:05;;;;;;;21.80;12.67;;;12.10;1.00;;;;;;5099316;28;20198;-70
2022/10/31 04:48:32;;;;;;;17.07;11.90;;;12.10;60.30;;;;;;5065932;28;20202;-72
2022/10/31 04:51:01;;;;;;;19.10;12.57;;;12.10;90.70;;;;;;5066138;28;20288;-70
2022/10/31 04:53:29;;;;;;;17.27;13.27;;;12.10;99.90;;;;;;5099321;28;20221;-71
2022/10/31 04:56:28;;;;;;;20.87;12.90;;;12.10;99.90;;;;;;5060491;28;20213;-70
2022/10/31 04:58:58;;;;;;;18.20;11.20;;;12.10;99.90;;;;;;5097965;28;20186;-70
2022/10/31 05:01:29;;;;;;;22.00;14.03;;;12.10;99.90;;;;;;5089429;28;20207;-70
2022/10/31 05:03:57;;;;;;;21.63;11.47;;;12.10;99.90;;;;;;5080858;28;20676;-70
2022/10/31 05:06:24;;;;;;;18.87;11.30;;;12.00;99.90;;;;;;5082444;28;20201;-69
2022/10/31 05:08:52;;;;;;;14.40;10.70;;;12.00;99.90;;;;;;5083112;28;20281;-70
2022/10/31 05:11:19;;;;;;;16.33;11.03;;;12.00;95.50;;;;;;5088150;28;20233;-70
2022/10/31 05:13:46;;;;;;;18.60;11.17;;;12.00;84.10;;;;;;5071401;28;20193;-70
2022/10/31 05:16:13;;;;;;;18.50;11.67;;;12.00;99.90;;;;;;5079877;28;20202;-70
2022/10/31 05:18:58;;;;;;;18.73;11.77;;;12.00;99.90;;;;;;5100725;28;20343;-70
2022/10/31 05:21:44;;;;;;;16.00;9.70;;;12.10;99.90;;;;;;5101873;28;20209;-70
2022/10/31 05:24:11;;;;;;;13.70;9.47;;;12.10;99.90;;;;;;5082145;28;20218;-70
2022/10/31 05:26:40;;;;;;;17.43;10.23;;;12.00;99.90;;;;;;5083981;28;20237;-70
2022/10/31 05:29:07;;;;;;;13.33;10.87;;;12.00;22.60;;;;;;5065991;28;20829;-69
2022/10/31 05:31:34;;;;;;;20.40;12.57;;;12.00;1.00;;;;;;5081038;28;20213;-69
2022/10/31 05:34:03;;;;;;;73.50;36.83;;;11.90;1.00;;;;;;5079788;28;20202;-65
2022/10/31 05:36:49;;;;;;;55.27;27.33;;;11.80;1.00;;;;;;5099023;28;20221;-65
2022/10/31 05:39:18;;;;;;;31.37;16.67;;;11.70;1.00;;;;;;5086243;28;20191;-65
2022/10/31 05:41:48;;;;;;;31.53;16.60;;;11.60;40.00;;;;;;5088308;28;20788;-66
2022/10/31 05:44:27;;;;;;;23.87;13.17;;;11.50;99.90;;;;;;5086262;28;20218;-65
2022/10/31 05:47:11;;;;;;;18.80;12.83;;;11.40;99.90;;;;;;5081863;28;20206;-65
2022/10/31 05:49:57;;;;;;;21.00;13.23;;;11.40;99.90;;;;;;5084574;28;20247;-66
2022/10/31 05:52:45;;;;;;;18.93;12.07;;;11.30;99.90;;;;;;5082349;28;20201;-66
2022/10/31 05:55:23;;;;;;;20.13;11.30;;;11.30;1.00;;;;;;5077096;28;20190;-66
2022/10/31 05:58:11;;;;;;;19.47;12.20;;;11.30;1.00;;;;;;5085538;28;20296;-66
2022/10/31 06:00:41;;;;;;;18.77;11.87;;;11.30;1.00;;;;;;5065370;28;20202;-65
2022/10/31 06:03:10;;;;;;;20.93;12.43;;;11.20;1.00;;;;;;5062982;28;20283;-65
2022/10/31 06:05:56;;;;;;;19.30;13.00;;;11.30;1.00;;;;;;5066225;28;20206;-66
2022/10/31 06:08:28;;;;;;;17.07;12.67;;;11.30;50.30;;;;;;5080940;28;20194;-66
2022/10/31 06:10:59;;;;;;;20.90;13.03;;;11.30;34.60;;;;;;5081600;28;20213;-66
2022/10/31 06:13:44;;;;;;;22.07;15.23;;;11.30;15.40;;;;;;5087718;28;20204;-65
2022/10/31 06:16:18;;;;;;;22.30;15.43;;;11.40;1.00;;;;;;5084646;28;20199;-69
2022/10/31 06:18:46;;;;;;;28.10;16.73;;;11.40;1.00;;;;;;5074550;28;20194;-69
2022/10/31 06:21:13;;;;;;;28.00;19.47;;;11.40;1.00;;;;;;5086568;28;20201;-67
2022/10/31 06:23:45;;;;;;;25.93;15.90;;;11.40;1.00;;;;;;5073300;28;20266;-69
2022/10/31 06:26:32;;;;;;;29.17;19.50;;;11.40;99.90;;;;;;5070043;28;20229;-69
2022/10/31 06:28:59;;;;;;;19.23;11.80;;;11.40;99.90;;;;;;5073025;28;20198;-70
2022/10/31 06:31:54;;;;;;;19.00;11.37;;;11.40;99.90;;;;;;5090079;28;20208;-68
2022/10/31 06:34:21;;;;;;;17.07;11.33;;;11.40;99.90;;;;;;5081903;28;20221;-68
2022/10/31 06:36:48;;;;;;;24.10;12.23;;;11.30;99.90;;;;;;5086400;28;20213;-68
2022/10/31 06:39:18;;;;;;;17.97;12.67;;;11.40;99.90;;;;;;5081775;28;20204;-68
2022/10/31 06:41:48;;;;;;;24.07;17.27;;;11.40;99.90;;;;;;5091023;28;20199;-67
2022/10/31 06:44:18;;;;;;;22.03;13.90;;;11.50;99.90;;;;;;5073156;28;20565;-68
2022/10/31 06:46:54;;;;;;;21.40;13.77;;;11.50;99.90;;;;;;5083396;28;20192;-68
2022/10/31 06:49:41;;;;;;;16.77;12.67;;;11.60;99.90;;;;;;5091662;28;20212;-68
2022/10/31 06:52:12;;;;;;;18.33;12.93;;;11.60;23.00;;;;;;5087731;28;20316;-67
2022/10/31 06:54:39;;;;;;;20.53;12.30;;;11.70;99.90;;;;;;5083694;28;20202;-69
2022/10/31 06:57:07;;;;;;;18.57;12.83;;;11.80;51.50;;;;;;5086080;28;20297;-69
2022/10/31 06:59:34;;;;;;;21.97;12.10;;;11.90;1.00;;;;;;5068851;28;20269;-69
2022/10/31 07:02:33;;;;;;;20.27;12.10;;;12.10;1.00;;;;;;5093991;28;20198;-70
2022/10/31 07:05:00;;;;;;;22.23;11.07;;;12.30;1.00;;;;;;5070929;28;20301;-69
2022/10/31 07:07:27;;;;;;;16.20;10.80;;;12.50;99.90;;;;;;5081836;28;20194;-69
2022/10/31 07:09:54;;;;;;;18.57;10.37;;;12.70;99.90;;;;;;5098164;28;20186;-68
2022/10/31 07:12:36;;;;;;;21.23;10.80;;;12.90;1.00;;;;;;5067341;28;20271;-68
2022/10/31 07:15:04;;;;;;;17.00;9.63;;;13.10;1.00;;;;;;5070123;28;20241;-68
2022/10/31 07:17:31;;;;;;;14.37;9.57;;;13.30;1.00;;;;;;5081775;28;20268;-69
2022/10/31 07:19:59;;;;;;;15.07;9.27;;;13.40;1.00;;;;;;5085297;28;20254;-69
2022/10/31 07:22:33;;;;;;;16.93;9.43;;;13.60;1.00;;;;;;5081374;28;20232;-69
2022/10/31 07:25:00;;;;;;;15.97;10.47;;;13.70;99.90;;;;;;5099071;28;20910;-69
2022/10/31 07:27:46;;;;;;;17.23;10.27;;;13.80;99.90;;;;;;5092433;28;20252;-69
2022/10/31 07:30:14;;;;;;;17.07;11.20;;;14.00;99.90;;;;;;5082069;28;20193;-69
2022/10/31 07:32:45;;;;;;;16.43;10.10;;;14.10;99.90;;;;;;5089471;28;20317;-69
2022/10/31 07:35:22;;;;;;;15.47;9.93;;;14.30;99.90;;;;;;5099861;28;20182;-69
2022/10/31 07:37:55;;;;;;;18.23;9.97;;;14.50;99.90;;;;;;5080745;28;20285;-67
2022/10/31 07:40:23;;;;;;;18.10;9.87;;;14.50;99.90;;;;;;5087925;28;22050;-68
2022/10/31 07:42:53;;;;;;;20.43;10.57;;;14.40;99.90;;;;;;5097403;28;20227;-68
2022/10/31 07:45:51;;;;;;;16.10;10.30;;;14.20;99.90;;;;;;5072983;28;20847;-69
2022/10/31 07:48:36;;;;;;;15.60;10.70;;;14.20;99.90;;;;;;5100721;28;20205;-68
2022/10/31 07:51:23;;;;;;;19.83;11.68;;;14.40;99.90;;;;;;5091160;28;20204;-68
2022/10/31 07:54:19;;;;;;;18.02;11.57;;;15.30;99.90;;;;;;5026907;28;20231;-68
2022/10/31 07:56:47;;;;;;;20.20;11.23;;;14.70;99.90;;;;;;5090179;28;20201;-68
2022/10/31 07:59:14;;;;;;;14.93;11.03;;;14.60;99.90;;;;;;5085690;28;20794;-68
2022/10/31 08:01:41;;;;;;;16.07;10.67;;;14.60;99.90;;;;;;5104246;28;20309;-69
2022/10/31 08:04:26;;;;;;;15.37;11.27;;;14.70;99.90;;;;;;5101442;28;20734;-69
2022/10/31 08:07:12;;;;;;;16.83;10.13;;;14.80;99.90;;;;;;5100286;28;20271;-68
2022/10/31 08:09:43;;;;;;;18.73;10.93;;;14.80;99.90;;;;;;5064286;28;20289;-68
2022/10/31 08:12:30;;;;;;;18.95;11.52;;;14.80;99.90;;;;;;5067322;28;20306;-68
2022/10/31 08:14:57;;;;;;;14.80;11.45;;;14.80;99.90;;;;;;5086308;28;20198;-67
2022/10/31 08:17:24;;;;;;;15.17;10.37;;;14.80;99.90;;;;;;5080866;28;20190;-68
2022/10/31 08:19:57;;;;;;;23.13;12.75;;;14.90;99.90;;;;;;5062571;28;20194;-68
2022/10/31 08:22:29;;;;;;;22.10;12.88;;;14.80;99.90;;;;;;5088871;28;20201;-68
2022/10/31 08:24:57;;;;;;;20.80;13.13;;;14.80;99.90;;;;;;5078076;28;20259;-68
2022/10/31 08:27:25;;;;;;;19.92;12.43;;;14.80;99.90;;;;;;5064105;28;20225;-67
2022/10/31 08:29:53;;;;;;;19.88;12.50;;;14.80;99.90;;;;;;5087902;28;20662;-67
2022/10/31 08:32:22;;;;;;;23.05;13.95;;;14.90;99.90;;;;;;5100671;28;20862;-68
2022/10/31 08:34:52;;;;;;;22.95;12.98;;;15.00;99.90;;;;;;5097793;28;20243;-68
2022/10/31 08:37:37;;;;;;;23.73;13.00;;;15.20;99.90;;;;;;5084141;28;20236;-67
2022/10/31 08:40:06;;;;;;;14.98;10.48;;;15.50;87.30;;;;;;5087423;28;20195;-67
2022/10/31 08:42:34;;;;;;;18.35;11.43;;;15.90;98.80;;;;;;5099472;28;20200;-67
2022/10/31 08:45:02;;;;;;;23.67;11.93;;;16.20;8.50;;;;;;5086901;28;20189;-68
2022/10/31 08:47:30;;;;;;;18.00;11.82;;;16.40;1.00;;;;;;5088557;28;20221;-70
2022/10/31 08:49:58;;;;;;;26.58;13.57;;;16.60;1.00;;;;;;5073988;28;20883;-70
2022/10/31 08:52:26;;;;;;;19.77;11.90;;;16.60;1.00;;;;;;5106731;28;20658;-70
2022/10/31 08:55:13;;;;;;;16.33;12.05;;;16.90;1.00;;;;;;5094488;28;20208;-70
2022/10/31 08:58:02;;;;;;;30.42;13.90;;;17.30;1.00;;;;;;5092512;28;20592;-68
2022/10/31 09:00:38;;;;;;;23.25;13.60;;;17.00;1.00;;;;;;5084732;28;20266;-69
2022/10/31 09:03:15;;;;;;;21.38;11.93;;;17.00;1.00;;;;;;5103842;28;20184;-70
2022/10/31 09:05:42;;;;;;;17.83;11.55;;;17.40;1.00;;;;;;5091401;28;20190;-70
2022/10/31 09:08:12;;;;;;;19.75;12.10;;;17.80;1.00;;;;;;5082370;28;20199;-67
2022/10/31 09:10:45;;;;;;;19.60;11.32;;;19.10;1.00;;;;;;5091530;28;20684;-68
2022/10/31 09:13:20;;;;;;;18.83;11.60;;;19.90;1.00;;;;;;5080833;28;20261;-69
2022/10/31 09:16:07;;;;;;;19.77;11.23;;;20.40;1.00;;;;;;5097264;28;20212;-68
2022/10/31 09:18:34;;;;;;;20.98;10.75;;;20.80;1.00;;;;;;5091099;28;20189;-67
2022/10/31 09:21:01;;;;;;;16.02;10.73;;;21.40;1.00;;;;;;5092438;28;20189;-68
2022/10/31 09:23:31;;;;;;;20.42;12.75;;;21.60;1.00;;;;;;5084325;28;20205;-68
2022/10/31 09:26:01;;;;;;;22.50;12.13;;;21.40;1.00;;;;;;5083823;28;20201;-68
2022/10/31 09:28:36;;;;;;;21.35;12.35;;;21.20;1.00;;;;;;5084695;28;20209;-68
2022/10/31 09:31:08;;;;;;;20.50;11.27;;;21.30;1.00;;;;;;5083319;28;20198;-68
2022/10/31 09:33:49;;;;;;;20.75;12.18;;;22.10;1.00;;;;;;5086739;28;20201;-68
2022/10/31 09:36:38;;;;;;;19.75;12.40;;;22.70;1.00;;;;;;5086924;28;20551;-69
2022/10/31 09:39:12;;;;;;;17.27;12.07;;;23.90;1.00;;;;;;5085273;28;20212;-68
2022/10/31 09:41:44;;;;;;;22.05;12.73;;;23.40;1.00;;;;;;5083743;28;20206;-68
2022/10/31 09:44:23;;;;;;;21.23;12.85;;;21.40;1.00;;;;;;5082982;28;20198;-69
2022/10/31 09:47:02;;;;;;;20.38;11.35;;;22.00;1.00;;;;;;5083884;28;20266;-69
2022/10/31 09:49:33;;;;;;;16.58;11.18;;;23.00;1.00;;;;;;5082953;28;20239;-68
2022/10/31 09:52:18;;;;;;;18.73;12.90;;;22.50;1.00;;;;;;5088751;28;20209;-68
2022/10/31 09:54:51;;;;;;;23.40;13.15;;;23.30;1.00;;;;;;5089613;28;20185;-68
2022/10/31 09:57:27;;;;;;;22.55;12.20;;;25.20;1.00;;;;;;5089165;28;20228;-69
2022/10/31 09:59:56;;;;;;;24.27;13.77;;;24.00;1.00;;;;;;5071517;28;20529;-68
2022/10/31 10:02:41;;;;;;;17.67;13.05;;;23.50;1.00;;;;;;5090857;28;20558;-68
2022/10/31 10:05:15;;;;;;;22.75;13.38;;;23.70;1.00;;;;;;5071564;28;20202;-68
2022/10/31 10:07:59;;;;;;;21.98;12.98;;;25.70;1.00;;;;;;5084819;28;20639;-69
2022/10/31 10:11:07;;;;;;;18.60;12.13;;;27.00;1.00;;;;;;5097192;28;20214;-69
2022/10/31 10:14:44;;;;;;;21.02;13.48;;;27.60;1.00;;;;;;5079173;28;20206;-69
2022/10/31 10:17:32;;;;;;;21.67;14.57;;;26.20;1.00;;;;;;5095453;28;20214;-68
2022/10/31 10:20:05;;;;;;;21.92;15.57;;;24.70;1.00;;;;;;5084920;28;20193;-69
2022/10/31 10:23:01;;;;;;;30.15;16.33;;;23.20;1.00;;;;;;5086388;28;20209;-67
2022/10/31 10:25:40;;;;;;;26.02;15.82;;;23.60;1.00;;;;;;5001331;28;20204;-68
2022/10/31 10:28:23;;;;;;;23.80;16.52;;;24.00;1.00;;;;;;5099158;28;20544;-69
2022/10/31 10:30:56;;;;;;;27.95;17.88;;;24.00;1.00;;;;;;5099534;28;20206;-67
2022/10/31 10:33:42;;;;;;;27.58;18.02;;;22.90;1.00;;;;;;5083342;28;20217;-68
2022/10/31 10:36:17;;;;;;;28.48;17.65;;;22.70;1.00;;;;;;5088063;28;20224;-68
2022/10/31 10:39:18;;;;;;;29.13;17.17;;;22.60;1.00;;;;;;5099844;28;21681;-70
2022/10/31 10:47:38;;;;;;;30.92;17.52;;;22.20;1.00;;;;;;5082591;28;20265;-69
2022/10/31 10:50:25;;;;;;;31.25;18.23;;;22.20;1.00;;;;;;5099051;28;20198;-68
2022/10/31 10:53:21;;;;;;;29.70;18.13;;;21.80;1.00;;;;;;5082177;28;20209;-69
2022/10/31 10:56:19;;;;;;;28.58;18.38;;;21.60;1.00;;;;;;5082828;28;20620;-70
2022/10/31 10:58:55;;;;;;;30.45;18.33;;;21.20;1.00;;;;;;5100640;28;20683;-69
2022/10/31 11:01:22;;;;;;;34.97;19.27;;;20.80;1.00;;;;;;5100162;28;20351;-68
2022/10/31 11:03:49;;;;;;;33.13;19.30;;;20.30;1.00;;;;;;5098151;28;20224;-68
2022/10/31 11:06:25;;;;;;;35.53;20.52;;;20.30;1.00;;;;;;5099444;28;20190;-67
2022/10/31 11:08:53;;;;;;;36.63;19.35;;;20.00;1.00;;;;;;5084404;28;20194;-67
2022/10/31 11:11:30;;;;;;;36.47;20.27;;;19.80;1.00;;;;;;5081487;28;20278;-69
2022/10/31 11:14:12;;;;;;;32.88;19.55;;;19.70;1.00;;;;;;5100106;28;20197;-69
2022/10/31 11:16:42;;;;;;;41.58;21.63;;;20.10;1.00;;;;;;5098922;28;20206;-70
2022/10/31 11:19:20;;;;;;;34.60;21.75;;;20.10;1.00;;;;;;5080463;28;20181;-71
2022/10/31 11:21:48;;;;;;;34.22;21.30;;;20.10;1.00;;;;;;5097299;28;20208;-72
2022/10/31 11:24:28;;;;;;;37.22;21.15;;;20.60;1.00;;;;;;5100610;28;20281;-69
2022/10/31 11:27:16;;;;;;;37.85;21.17;;;20.90;1.00;;;;;;5082894;28;20612;-69
2022/10/31 11:29:43;;;;;;;35.03;21.15;;;21.50;1.00;;;;;;5099061;28;20206;-67
2022/10/31 11:32:23;;;;;;;36.50;21.27;;;21.50;1.00;;;;;;5083191;28;20216;-65
2022/10/31 11:34:58;;;;;;;33.63;21.42;;;21.90;1.00;;;;;;5097961;28;20189;-68
2022/10/31 11:37:31;;;;;;;35.95;20.92;;;22.80;1.00;;;;;;5084126;28;20220;-69
2022/10/31 11:40:02;;;;;;;38.80;20.77;;;23.50;1.00;;;;;;5097842;28;20277;-67
2022/10/31 11:42:40;;;;;;;34.78;21.58;;;23.10;1.00;;;;;;5083416;28;20212;-67
2022/10/31 11:45:34;;;;;;;35.25;21.27;;;23.10;1.00;;;;;;5064572;28;20196;-65
2022/10/31 11:48:19;;;;;;;43.60;20.70;;;24.10;1.00;;;;;;5099164;28;21067;-68
2022/10/31 11:50:58;;;;;;;35.85;20.27;;;23.90;1.00;;;;;;5097453;28;20206;-68
2022/10/31 11:53:32;;;;;;;29.42;20.38;;;23.30;1.00;;;;;;5102103;28;20611;-69
2022/10/31 11:56:23;;;;;;;34.13;20.48;;;23.10;1.00;;;;;;5087567;28;20258;-67
2022/10/31 11:59:05;;;;;;;38.90;20.38;;;22.90;1.00;;;;;;5097233;28;20285;-70
2022/10/31 12:01:33;;;;;;;33.03;19.73;;;23.00;1.00;;;;;;5087286;28;20201;-68
2022/10/31 12:04:08;;;;;;;34.05;19.65;;;22.90;1.00;;;;;;5089351;28;20198;-68
2022/10/31 12:06:37;;;;;;;32.80;18.65;;;22.70;1.00;;;;;;5101927;28;20331;-68
2022/10/31 12:09:21;;;;;;;32.25;20.10;;;22.60;1.00;;;;;;5100710;28;20224;-68
2022/10/31 12:12:03;;;;;;;36.10;21.27;;;22.00;1.00;;;;;;5082133;28;20418;-69
2022/10/31 12:14:40;;;;;;;37.30;20.45;;;21.50;1.00;;;;;;5101702;28;20666;-67
2022/10/31 12:17:24;;;;;;;33.78;19.80;;;21.70;1.00;;;;;;5098314;28;20243;-69
2022/10/31 12:20:10;;;;;;;33.83;20.95;;;21.60;1.00;;;;;;5095694;28;20283;-70
2022/10/31 12:23:14;;;;;;;38.75;20.92;;;21.10;1.00;;;;;;5087336;28;20233;-67
2022/10/31 12:25:58;;;;;;;41.30;21.35;;;20.70;1.00;;;;;;5100618;28;20280;-69
2022/10/31 12:28:28;;;;;;;37.53;20.95;;;20.70;1.00;;;;;;5087110;28;20288;-68
2022/10/31 12:31:25;;;;;;;32.35;20.20;;;20.90;1.00;;;;;;5098179;28;20307;-67
2022/10/31 12:34:07;;;;;;;31.35;20.48;;;21.10;1.00;;;;;;5071492;28;20335;-68
2022/10/31 12:36:37;;;;;;;35.58;19.75;;;20.90;1.00;;;;;;5086841;28;20221;-67
2022/10/31 12:39:55;;;;;;;37.42;21.15;;;20.70;1.00;;;;;;5081108;28;20206;-68
2022/10/31 12:42:44;;;;;;;39.78;21.23;;;20.60;1.00;;;;;;5040509;28;20224;-68
2022/10/31 12:45:26;;;;;;;33.25;19.75;;;20.60;1.00;;;;;;5098270;28;20236;-68
2022/10/31 12:48:10;;;;;;;32.85;20.77;;;20.60;1.00;;;;;;5090090;28;20193;-68
2022/10/31 12:51:14;;;;;;;35.78;21.13;;;20.70;1.00;;;;;;5082671;28;20197;-69
2022/10/31 12:54:02;;;;;;;38.17;21.55;;;20.10;1.00;;;;;;5107792;28;20244;-68
2022/10/31 12:56:41;;;;;;;37.05;22.30;;;20.00;1.00;;;;;;5073705;28;20202;-68
2022/10/31 12:59:35;;;;;;;39.63;21.67;;;20.20;1.00;;;;;;5077177;28;20190;-68
2022/10/31 13:02:22;;;;;;;37.63;21.35;;;20.10;1.00;;;;;;5085047;28;20653;-67
2022/10/31 13:05:16;;;;;;;35.15;20.83;;;20.00;1.00;;;;;;5103642;28;20217;-69
2022/10/31 13:07:54;;;;;;;37.75;21.42;;;20.10;1.00;;;;;;5092400;28;20218;-68
2022/10/31 13:10:31;;;;;;;36.60;20.98;;;20.10;1.00;;;;;;5100701;28;20244;-67
2022/10/31 13:13:10;;;;;;;34.55;20.98;;;20.30;1.00;;;;;;5085836;28;20595;-69
2022/10/31 13:15:47;;;;;;;39.15;21.30;;;20.30;1.00;;;;;;5104269;28;20217;-67
2022/10/31 13:18:27;;;;;;;33.03;21.15;;;20.30;1.00;;;;;;5103151;28;20201;-68
2022/10/31 13:20:57;;;;;;;34.60;20.80;;;20.40;1.00;;;;;;5103335;28;20197;-67
2022/10/31 13:23:36;;;;;;;35.15;20.67;;;20.30;1.00;;;;;;5091404;28;20285;-68
2022/10/31 13:26:48;;;;;;;31.63;19.98;;;20.20;1.00;;;;;;5100419;28;20225;-67